sensor_id;sensor_type;location;lat;lon;timestamp;P1;durP1;ratioP1;P2;durP2;ratioP2
22268;SDS011;11303;50.772;19.670;2022-12-08T00:01:16;30.60;;;20.63;;
22268;SDS011;11303;50.772;19.670;2022-12-08T00:03:19;29.05;;;15.77;;
22268;SDS011;11303;50.772;19.670;2022-12-08T00:05:21;28.17;;;17.70;;
22268;SDS011;11303;50.772;19.670;2022-12-08T00:07:41;21.45;;;13.88;;
22268;SDS011;11303;50.772;19.670;2022-12-08T00:10:01;27.75;;;17.17;;
22268;SDS011;11303;50.772;19.670;2022-12-08T00:12:23;36.65;;;19.25;;
22268;SDS011;11303;50.772;19.670;2022-12-08T00:14:34;23.25;;;13.45;;
22268;SDS011;11303;50.772;19.670;2022-12-08T00:16:38;30.17;;;16.23;;
22268;SDS011;11303;50.772;19.670;2022-12-08T00:18:39;20.60;;;12.43;;
22268;SDS011;11303;50.772;19.670;2022-12-08T00:20:41;24.50;;;13.82;;
22268;SDS011;11303;50.772;19.670;2022-12-08T00:22:42;23.33;;;13.95;;
22268;SDS011;11303;50.772;19.670;2022-12-08T00:24:44;32.00;;;17.70;;
22268;SDS011;11303;50.772;19.670;2022-12-08T00:26:46;39.30;;;24.92;;
22268;SDS011;11303;50.772;19.670;2022-12-08T00:28:48;31.98;;;17.42;;
22268;SDS011;11303;50.772;19.670;2022-12-08T00:30:50;59.65;;;37.05;;
22268;SDS011;11303;50.772;19.670;2022-12-08T00:32:51;43.65;;;25.63;;
22268;SDS011;11303;50.772;19.670;2022-12-08T00:34:53;55.45;;;34.85;;
22268;SDS011;11303;50.772;19.670;2022-12-08T00:36:54;56.92;;;35.00;;
22268;SDS011;11303;50.772;19.670;2022-12-08T00:38:56;49.08;;;30.10;;
22268;SDS011;11303;50.772;19.670;2022-12-08T00:40:58;58.47;;;31.73;;
22268;SDS011;11303;50.772;19.670;2022-12-08T00:42:59;71.40;;;38.80;;
22268;SDS011;11303;50.772;19.670;2022-12-08T00:45:01;32.90;;;20.27;;
22268;SDS011;11303;50.772;19.670;2022-12-08T00:47:02;51.42;;;28.02;;
22268;SDS011;11303;50.772;19.670;2022-12-08T00:49:04;36.15;;;22.52;;
22268;SDS011;11303;50.772;19.670;2022-12-08T00:51:06;63.13;;;38.47;;
22268;SDS011;11303;50.772;19.670;2022-12-08T00:53:08;35.28;;;23.10;;
22268;SDS011;11303;50.772;19.670;2022-12-08T00:55:09;56.50;;;34.15;;
22268;SDS011;11303;50.772;19.670;2022-12-08T00:57:11;54.35;;;34.35;;
22268;SDS011;11303;50.772;19.670;2022-12-08T00:59:13;43.97;;;25.95;;
22268;SDS011;11303;50.772;19.670;2022-12-08T01:01:15;36.08;;;22.85;;
22268;SDS011;11303;50.772;19.670;2022-12-08T01:03:17;45.40;;;25.25;;
22268;SDS011;11303;50.772;19.670;2022-12-08T01:05:18;50.85;;;31.02;;
22268;SDS011;11303;50.772;19.670;2022-12-08T01:07:20;58.33;;;34.40;;
22268;SDS011;11303;50.772;19.670;2022-12-08T01:09:21;62.08;;;36.47;;
22268;SDS011;11303;50.772;19.670;2022-12-08T01:11:23;64.40;;;37.70;;
22268;SDS011;11303;50.772;19.670;2022-12-08T01:13:24;63.80;;;35.33;;
22268;SDS011;11303;50.772;19.670;2022-12-08T01:15:26;51.45;;;30.40;;
22268;SDS011;11303;50.772;19.670;2022-12-08T01:17:27;44.45;;;25.55;;
22268;SDS011;11303;50.772;19.670;2022-12-08T01:19:29;39.33;;;24.17;;
22268;SDS011;11303;50.772;19.670;2022-12-08T01:21:31;36.50;;;23.08;;
22268;SDS011;11303;50.772;19.670;2022-12-08T01:23:33;41.90;;;23.17;;
22268;SDS011;11303;50.772;19.670;2022-12-08T01:25:34;38.00;;;22.50;;
22268;SDS011;11303;50.772;19.670;2022-12-08T01:27:36;37.00;;;21.80;;
22268;SDS011;11303;50.772;19.670;2022-12-08T01:29:37;38.25;;;22.60;;
22268;SDS011;11303;50.772;19.670;2022-12-08T01:31:39;36.83;;;22.20;;
22268;SDS011;11303;50.772;19.670;2022-12-08T01:33:41;39.35;;;23.45;;
22268;SDS011;11303;50.772;19.670;2022-12-08T01:35:43;42.47;;;23.35;;
22268;SDS011;11303;50.772;19.670;2022-12-08T01:37:44;42.72;;;22.80;;
22268;SDS011;11303;50.772;19.670;2022-12-08T01:39:46;39.90;;;22.88;;
22268;SDS011;11303;50.772;19.670;2022-12-08T01:41:47;42.03;;;22.73;;
22268;SDS011;11303;50.772;19.670;2022-12-08T01:43:53;40.38;;;23.08;;
22268;SDS011;11303;50.772;19.670;2022-12-08T01:45:57;47.00;;;23.65;;
22268;SDS011;11303;50.772;19.670;2022-12-08T01:48:03;37.70;;;22.77;;
22268;SDS011;11303;50.772;19.670;2022-12-08T01:50:09;41.17;;;22.80;;
22268;SDS011;11303;50.772;19.670;2022-12-08T01:52:18;38.38;;;22.02;;
22268;SDS011;11303;50.772;19.670;2022-12-08T01:54:28;37.60;;;22.00;;
22268;SDS011;11303;50.772;19.670;2022-12-08T01:56:45;38.55;;;22.58;;
22268;SDS011;11303;50.772;19.670;2022-12-08T01:58:52;40.53;;;21.52;;
22268;SDS011;11303;50.772;19.670;2022-12-08T02:00:55;36.28;;;20.67;;
22268;SDS011;11303;50.772;19.670;2022-12-08T02:02:58;43.58;;;22.42;;
22268;SDS011;11303;50.772;19.670;2022-12-08T02:05:02;41.85;;;22.55;;
22268;SDS011;11303;50.772;19.670;2022-12-08T02:07:06;42.22;;;23.30;;
22268;SDS011;11303;50.772;19.670;2022-12-08T02:09:10;43.42;;;24.58;;
22268;SDS011;11303;50.772;19.670;2022-12-08T02:11:12;49.28;;;24.77;;
22268;SDS011;11303;50.772;19.670;2022-12-08T02:13:14;55.17;;;26.17;;
22268;SDS011;11303;50.772;19.670;2022-12-08T02:15:19;57.97;;;27.10;;
22268;SDS011;11303;50.772;19.670;2022-12-08T02:17:29;53.78;;;27.50;;
22268;SDS011;11303;50.772;19.670;2022-12-08T02:24:49;55.83;;;27.60;;
22268;SDS011;11303;50.772;19.670;2022-12-08T02:30:16;54.58;;;26.85;;
22268;SDS011;11303;50.772;19.670;2022-12-08T02:32:34;51.72;;;26.50;;
22268;SDS011;11303;50.772;19.670;2022-12-08T02:34:42;52.67;;;25.92;;
22268;SDS011;11303;50.772;19.670;2022-12-08T02:41:44;48.83;;;26.27;;
22268;SDS011;11303;50.772;19.670;2022-12-08T02:43:54;46.00;;;26.52;;
22268;SDS011;11303;50.772;19.670;2022-12-08T02:46:12;49.60;;;27.00;;
22268;SDS011;11303;50.772;19.670;2022-12-08T02:48:24;50.53;;;26.83;;
22268;SDS011;11303;50.772;19.670;2022-12-08T02:50:27;53.70;;;28.67;;
22268;SDS011;11303;50.772;19.670;2022-12-08T02:54:31;42.38;;;24.95;;
22268;SDS011;11303;50.772;19.670;2022-12-08T02:57:08;47.80;;;27.20;;
22268;SDS011;11303;50.772;19.670;2022-12-08T02:59:15;47.03;;;26.15;;
22268;SDS011;11303;50.772;19.670;2022-12-08T03:01:39;40.85;;;24.98;;
22268;SDS011;11303;50.772;19.670;2022-12-08T03:03:45;47.10;;;27.38;;
22268;SDS011;11303;50.772;19.670;2022-12-08T03:11:05;48.67;;;25.52;;
22268;SDS011;11303;50.772;19.670;2022-12-08T03:13:24;42.63;;;25.05;;
22268;SDS011;11303;50.772;19.670;2022-12-08T03:15:33;46.38;;;26.40;;
22268;SDS011;11303;50.772;19.670;2022-12-08T03:17:37;47.65;;;27.80;;
22268;SDS011;11303;50.772;19.670;2022-12-08T03:19:43;51.17;;;27.83;;
22268;SDS011;11303;50.772;19.670;2022-12-08T03:21:48;48.83;;;27.30;;
22268;SDS011;11303;50.772;19.670;2022-12-08T03:23:53;44.72;;;25.02;;
22268;SDS011;11303;50.772;19.670;2022-12-08T03:26:03;43.72;;;24.40;;
22268;SDS011;11303;50.772;19.670;2022-12-08T03:28:11;42.60;;;23.23;;
22268;SDS011;11303;50.772;19.670;2022-12-08T03:30:13;45.25;;;23.60;;
22268;SDS011;11303;50.772;19.670;2022-12-08T03:32:18;42.38;;;23.02;;
22268;SDS011;11303;50.772;19.670;2022-12-08T03:34:30;37.85;;;22.00;;
22268;SDS011;11303;50.772;19.670;2022-12-08T03:36:31;39.10;;;21.80;;
22268;SDS011;11303;50.772;19.670;2022-12-08T03:38:52;38.90;;;21.17;;
22268;SDS011;11303;50.772;19.670;2022-12-08T03:40:54;41.13;;;22.10;;
22268;SDS011;11303;50.772;19.670;2022-12-08T03:43:14;39.25;;;22.02;;
22268;SDS011;11303;50.772;19.670;2022-12-08T03:45:15;40.95;;;22.83;;
22268;SDS011;11303;50.772;19.670;2022-12-08T03:47:17;43.65;;;24.05;;
22268;SDS011;11303;50.772;19.670;2022-12-08T03:49:18;39.50;;;24.35;;
22268;SDS011;11303;50.772;19.670;2022-12-08T03:51:20;42.80;;;25.13;;
22268;SDS011;11303;50.772;19.670;2022-12-08T03:53:22;41.63;;;25.05;;
22268;SDS011;11303;50.772;19.670;2022-12-08T03:55:23;51.83;;;29.38;;
22268;SDS011;11303;50.772;19.670;2022-12-08T03:57:25;54.60;;;29.55;;
22268;SDS011;11303;50.772;19.670;2022-12-08T03:59:26;51.70;;;29.65;;
22268;SDS011;11303;50.772;19.670;2022-12-08T04:01:28;52.55;;;31.08;;
22268;SDS011;11303;50.772;19.670;2022-12-08T04:03:29;59.30;;;33.83;;
22268;SDS011;11303;50.772;19.670;2022-12-08T04:05:31;52.53;;;30.20;;
22268;SDS011;11303;50.772;19.670;2022-12-08T04:07:32;53.40;;;32.85;;
22268;SDS011;11303;50.772;19.670;2022-12-08T04:09:34;57.40;;;32.03;;
22268;SDS011;11303;50.772;19.670;2022-12-08T04:11:35;56.55;;;31.73;;
22268;SDS011;11303;50.772;19.670;2022-12-08T04:13:37;55.78;;;31.80;;
22268;SDS011;11303;50.772;19.670;2022-12-08T04:15:43;53.33;;;30.45;;
22268;SDS011;11303;50.772;19.670;2022-12-08T04:17:48;55.38;;;30.20;;
22268;SDS011;11303;50.772;19.670;2022-12-08T04:19:50;55.25;;;29.63;;
22268;SDS011;11303;50.772;19.670;2022-12-08T04:21:51;50.80;;;29.63;;
22268;SDS011;11303;50.772;19.670;2022-12-08T04:23:53;50.15;;;29.15;;
22268;SDS011;11303;50.772;19.670;2022-12-08T04:26:01;51.90;;;29.80;;
22268;SDS011;11303;50.772;19.670;2022-12-08T04:28:03;54.65;;;30.52;;
22268;SDS011;11303;50.772;19.670;2022-12-08T04:30:06;53.20;;;30.45;;
22268;SDS011;11303;50.772;19.670;2022-12-08T04:32:08;58.60;;;30.80;;
22268;SDS011;11303;50.772;19.670;2022-12-08T04:34:10;65.22;;;34.47;;
22268;SDS011;11303;50.772;19.670;2022-12-08T04:36:12;61.80;;;34.58;;
22268;SDS011;11303;50.772;19.670;2022-12-08T04:38:13;60.05;;;32.58;;
22268;SDS011;11303;50.772;19.670;2022-12-08T04:40:15;67.57;;;34.17;;
22268;SDS011;11303;50.772;19.670;2022-12-08T04:42:16;73.53;;;36.70;;
22268;SDS011;11303;50.772;19.670;2022-12-08T04:44:18;84.65;;;41.70;;
22268;SDS011;11303;50.772;19.670;2022-12-08T04:46:20;82.38;;;38.72;;
22268;SDS011;11303;50.772;19.670;2022-12-08T04:48:21;77.15;;;39.35;;
22268;SDS011;11303;50.772;19.670;2022-12-08T04:50:23;83.38;;;41.15;;
22268;SDS011;11303;50.772;19.670;2022-12-08T04:52:25;132.70;;;61.92;;
22268;SDS011;11303;50.772;19.670;2022-12-08T04:54:27;116.05;;;57.80;;
22268;SDS011;11303;50.772;19.670;2022-12-08T04:56:29;110.38;;;55.75;;
22268;SDS011;11303;50.772;19.670;2022-12-08T04:58:30;100.38;;;49.08;;
22268;SDS011;11303;50.772;19.670;2022-12-08T05:00:32;89.72;;;44.25;;
22268;SDS011;11303;50.772;19.670;2022-12-08T05:02:33;94.93;;;43.72;;
22268;SDS011;11303;50.772;19.670;2022-12-08T05:04:35;92.97;;;44.70;;
22268;SDS011;11303;50.772;19.670;2022-12-08T05:06:36;102.82;;;43.97;;
22268;SDS011;11303;50.772;19.670;2022-12-08T05:08:38;88.03;;;40.05;;
22268;SDS011;11303;50.772;19.670;2022-12-08T05:10:40;106.22;;;45.88;;
22268;SDS011;11303;50.772;19.670;2022-12-08T05:12:41;106.80;;;43.42;;
22268;SDS011;11303;50.772;19.670;2022-12-08T05:14:43;125.50;;;48.53;;
22268;SDS011;11303;50.772;19.670;2022-12-08T05:16:44;162.98;;;63.80;;
22268;SDS011;11303;50.772;19.670;2022-12-08T05:18:47;155.88;;;62.17;;
22268;SDS011;11303;50.772;19.670;2022-12-08T05:20:48;189.10;;;81.88;;
22268;SDS011;11303;50.772;19.670;2022-12-08T05:22:50;152.88;;;69.35;;
22268;SDS011;11303;50.772;19.670;2022-12-08T05:24:51;151.55;;;71.60;;
22268;SDS011;11303;50.772;19.670;2022-12-08T05:26:54;127.88;;;58.33;;
22268;SDS011;11303;50.772;19.670;2022-12-08T05:28:55;116.45;;;54.58;;
22268;SDS011;11303;50.772;19.670;2022-12-08T05:30:57;108.20;;;48.10;;
22268;SDS011;11303;50.772;19.670;2022-12-08T05:32:59;97.28;;;45.45;;
22268;SDS011;11303;50.772;19.670;2022-12-08T05:35:00;103.25;;;46.22;;
22268;SDS011;11303;50.772;19.670;2022-12-08T05:37:02;95.55;;;44.75;;
22268;SDS011;11303;50.772;19.670;2022-12-08T05:39:03;110.32;;;46.90;;
22268;SDS011;11303;50.772;19.670;2022-12-08T05:41:15;99.72;;;43.25;;
22268;SDS011;11303;50.772;19.670;2022-12-08T05:43:19;102.75;;;43.15;;
22268;SDS011;11303;50.772;19.670;2022-12-08T05:45:21;105.10;;;42.63;;
22268;SDS011;11303;50.772;19.670;2022-12-08T05:47:22;113.13;;;46.13;;
22268;SDS011;11303;50.772;19.670;2022-12-08T05:49:24;123.90;;;50.88;;
22268;SDS011;11303;50.772;19.670;2022-12-08T05:51:26;129.18;;;50.50;;
22268;SDS011;11303;50.772;19.670;2022-12-08T05:53:28;123.57;;;50.75;;
22268;SDS011;11303;50.772;19.670;2022-12-08T05:55:29;136.48;;;51.53;;
22268;SDS011;11303;50.772;19.670;2022-12-08T05:57:31;139.57;;;52.75;;
22268;SDS011;11303;50.772;19.670;2022-12-08T05:59:32;127.70;;;49.85;;
22268;SDS011;11303;50.772;19.670;2022-12-08T06:01:34;130.73;;;52.22;;
22268;SDS011;11303;50.772;19.670;2022-12-08T06:03:36;132.88;;;50.80;;
22268;SDS011;11303;50.772;19.670;2022-12-08T06:05:39;125.38;;;52.47;;
22268;SDS011;11303;50.772;19.670;2022-12-08T06:07:41;118.45;;;49.78;;
22268;SDS011;11303;50.772;19.670;2022-12-08T06:09:43;111.00;;;49.60;;
22268;SDS011;11303;50.772;19.670;2022-12-08T06:11:44;213.82;;;90.07;;
22268;SDS011;11303;50.772;19.670;2022-12-08T06:13:47;184.40;;;79.53;;
22268;SDS011;11303;50.772;19.670;2022-12-08T06:15:49;142.05;;;61.05;;
22268;SDS011;11303;50.772;19.670;2022-12-08T06:17:51;111.35;;;50.88;;
22268;SDS011;11303;50.772;19.670;2022-12-08T06:19:53;110.38;;;48.70;;
22268;SDS011;11303;50.772;19.670;2022-12-08T06:21:54;110.63;;;46.95;;
22268;SDS011;11303;50.772;19.670;2022-12-08T06:23:55;111.18;;;47.22;;
22268;SDS011;11303;50.772;19.670;2022-12-08T06:26:00;123.90;;;50.67;;
22268;SDS011;11303;50.772;19.670;2022-12-08T06:28:12;102.40;;;43.05;;
22268;SDS011;11303;50.772;19.670;2022-12-08T06:30:14;104.82;;;43.13;;
22268;SDS011;11303;50.772;19.670;2022-12-08T06:32:16;118.47;;;50.15;;
22268;SDS011;11303;50.772;19.670;2022-12-08T06:34:21;134.68;;;55.10;;
22268;SDS011;11303;50.772;19.670;2022-12-08T06:36:24;117.63;;;53.70;;
22268;SDS011;11303;50.772;19.670;2022-12-08T06:38:28;111.18;;;46.60;;
22268;SDS011;11303;50.772;19.670;2022-12-08T06:40:30;94.03;;;41.15;;
22268;SDS011;11303;50.772;19.670;2022-12-08T06:42:31;111.55;;;47.63;;
22268;SDS011;11303;50.772;19.670;2022-12-08T06:44:45;88.78;;;39.53;;
22268;SDS011;11303;50.772;19.670;2022-12-08T06:46:47;84.30;;;38.05;;
22268;SDS011;11303;50.772;19.670;2022-12-08T06:48:48;92.30;;;39.00;;
22268;SDS011;11303;50.772;19.670;2022-12-08T06:50:50;89.03;;;37.15;;
22268;SDS011;11303;50.772;19.670;2022-12-08T06:52:52;94.65;;;39.25;;
22268;SDS011;11303;50.772;19.670;2022-12-08T06:55:05;91.40;;;40.25;;
22268;SDS011;11303;50.772;19.670;2022-12-08T06:57:07;105.00;;;46.60;;
22268;SDS011;11303;50.772;19.670;2022-12-08T06:59:09;107.95;;;46.95;;
22268;SDS011;11303;50.772;19.670;2022-12-08T07:01:11;107.90;;;45.17;;
22268;SDS011;11303;50.772;19.670;2022-12-08T07:03:13;110.78;;;45.83;;
22268;SDS011;11303;50.772;19.670;2022-12-08T07:05:15;121.80;;;48.13;;
22268;SDS011;11303;50.772;19.670;2022-12-08T07:07:16;107.72;;;47.28;;
22268;SDS011;11303;50.772;19.670;2022-12-08T07:09:18;95.45;;;41.90;;
22268;SDS011;11303;50.772;19.670;2022-12-08T07:11:20;98.93;;;41.50;;
22268;SDS011;11303;50.772;19.670;2022-12-08T07:13:22;95.97;;;38.70;;
22268;SDS011;11303;50.772;19.670;2022-12-08T07:15:24;106.60;;;41.17;;
22268;SDS011;11303;50.772;19.670;2022-12-08T07:17:26;103.05;;;41.90;;
22268;SDS011;11303;50.772;19.670;2022-12-08T07:19:27;104.22;;;44.50;;
22268;SDS011;11303;50.772;19.670;2022-12-08T07:21:35;94.97;;;40.35;;
22268;SDS011;11303;50.772;19.670;2022-12-08T07:23:36;98.93;;;41.05;;
22268;SDS011;11303;50.772;19.670;2022-12-08T07:25:38;101.40;;;42.72;;
22268;SDS011;11303;50.772;19.670;2022-12-08T07:27:40;100.30;;;42.83;;
22268;SDS011;11303;50.772;19.670;2022-12-08T07:29:41;103.00;;;41.00;;
22268;SDS011;11303;50.772;19.670;2022-12-08T07:31:43;100.80;;;42.08;;
22268;SDS011;11303;50.772;19.670;2022-12-08T07:33:45;100.13;;;43.40;;
22268;SDS011;11303;50.772;19.670;2022-12-08T07:35:54;87.22;;;39.35;;
22268;SDS011;11303;50.772;19.670;2022-12-08T07:37:58;93.32;;;40.83;;
22268;SDS011;11303;50.772;19.670;2022-12-08T07:40:00;82.30;;;40.30;;
22268;SDS011;11303;50.772;19.670;2022-12-08T07:42:05;73.00;;;35.72;;
22268;SDS011;11303;50.772;19.670;2022-12-08T07:44:07;68.28;;;35.17;;
22268;SDS011;11303;50.772;19.670;2022-12-08T07:46:16;66.35;;;34.50;;
22268;SDS011;11303;50.772;19.670;2022-12-08T07:48:22;55.28;;;29.75;;
22268;SDS011;11303;50.772;19.670;2022-12-08T07:50:24;48.42;;;27.25;;
22268;SDS011;11303;50.772;19.670;2022-12-08T07:52:28;43.22;;;24.92;;
22268;SDS011;11303;50.772;19.670;2022-12-08T07:54:34;43.88;;;24.83;;
22268;SDS011;11303;50.772;19.670;2022-12-08T07:56:35;38.50;;;23.25;;
22268;SDS011;11303;50.772;19.670;2022-12-08T07:58:37;41.67;;;23.75;;
22268;SDS011;11303;50.772;19.670;2022-12-08T08:00:38;42.75;;;21.95;;
22268;SDS011;11303;50.772;19.670;2022-12-08T08:02:40;39.10;;;22.75;;
22268;SDS011;11303;50.772;19.670;2022-12-08T08:04:43;36.22;;;22.15;;
22268;SDS011;11303;50.772;19.670;2022-12-08T08:06:44;32.53;;;21.23;;
22268;SDS011;11303;50.772;19.670;2022-12-08T08:08:46;33.78;;;20.17;;
22268;SDS011;11303;50.772;19.670;2022-12-08T08:10:48;35.95;;;21.65;;
22268;SDS011;11303;50.772;19.670;2022-12-08T08:12:58;40.08;;;22.70;;
22268;SDS011;11303;50.772;19.670;2022-12-08T08:15:06;36.30;;;21.17;;
22268;SDS011;11303;50.772;19.670;2022-12-08T08:17:09;37.17;;;22.17;;
22268;SDS011;11303;50.772;19.670;2022-12-08T08:19:11;35.90;;;20.95;;
22268;SDS011;11303;50.772;19.670;2022-12-08T08:21:13;40.45;;;21.75;;
22268;SDS011;11303;50.772;19.670;2022-12-08T08:23:35;42.90;;;22.42;;
22268;SDS011;11303;50.772;19.670;2022-12-08T08:25:36;33.28;;;19.70;;
22268;SDS011;11303;50.772;19.670;2022-12-08T08:27:38;38.35;;;19.85;;
22268;SDS011;11303;50.772;19.670;2022-12-08T08:29:45;43.70;;;21.95;;
22268;SDS011;11303;50.772;19.670;2022-12-08T08:31:47;38.65;;;21.25;;
22268;SDS011;11303;50.772;19.670;2022-12-08T08:33:49;39.97;;;22.08;;
22268;SDS011;11303;50.772;19.670;2022-12-08T08:35:50;33.95;;;18.90;;
22268;SDS011;11303;50.772;19.670;2022-12-08T08:37:52;32.20;;;19.63;;
22268;SDS011;11303;50.772;19.670;2022-12-08T08:39:56;34.75;;;19.77;;
22268;SDS011;11303;50.772;19.670;2022-12-08T08:41:58;32.78;;;21.80;;
22268;SDS011;11303;50.772;19.670;2022-12-08T08:44:05;35.25;;;22.98;;
22268;SDS011;11303;50.772;19.670;2022-12-08T08:46:08;41.67;;;25.98;;
22268;SDS011;11303;50.772;19.670;2022-12-08T08:48:10;38.65;;;25.38;;
22268;SDS011;11303;50.772;19.670;2022-12-08T08:50:11;30.58;;;18.27;;
22268;SDS011;11303;50.772;19.670;2022-12-08T08:52:16;30.25;;;17.73;;
22268;SDS011;11303;50.772;19.670;2022-12-08T08:54:18;36.33;;;20.02;;
22268;SDS011;11303;50.772;19.670;2022-12-08T08:56:19;32.78;;;19.10;;
22268;SDS011;11303;50.772;19.670;2022-12-08T08:58:21;30.80;;;18.85;;
22268;SDS011;11303;50.772;19.670;2022-12-08T09:00:29;28.80;;;18.17;;
22268;SDS011;11303;50.772;19.670;2022-12-08T09:02:30;30.50;;;17.85;;
22268;SDS011;11303;50.772;19.670;2022-12-08T09:04:33;29.25;;;18.13;;
22268;SDS011;11303;50.772;19.670;2022-12-08T09:06:38;32.00;;;19.02;;
22268;SDS011;11303;50.772;19.670;2022-12-08T09:08:40;30.52;;;19.25;;
22268;SDS011;11303;50.772;19.670;2022-12-08T09:10:42;29.00;;;17.92;;
22268;SDS011;11303;50.772;19.670;2022-12-08T09:12:44;32.55;;;19.42;;
22268;SDS011;11303;50.772;19.670;2022-12-08T09:14:48;31.90;;;20.65;;
22268;SDS011;11303;50.772;19.670;2022-12-08T09:16:50;29.77;;;18.13;;
22268;SDS011;11303;50.772;19.670;2022-12-08T09:18:51;27.02;;;17.05;;
22268;SDS011;11303;50.772;19.670;2022-12-08T09:20:56;24.52;;;15.40;;
22268;SDS011;11303;50.772;19.670;2022-12-08T09:23:07;27.60;;;16.48;;
22268;SDS011;11303;50.772;19.670;2022-12-08T09:25:14;39.35;;;20.85;;
22268;SDS011;11303;50.772;19.670;2022-12-08T09:27:16;30.25;;;18.60;;
22268;SDS011;11303;50.772;19.670;2022-12-08T09:29:18;25.50;;;16.02;;
22268;SDS011;11303;50.772;19.670;2022-12-08T09:31:20;26.40;;;16.00;;
22268;SDS011;11303;50.772;19.670;2022-12-08T09:33:22;57.67;;;27.65;;
22268;SDS011;11303;50.772;19.670;2022-12-08T09:35:24;27.60;;;17.38;;
22268;SDS011;11303;50.772;19.670;2022-12-08T09:37:26;25.88;;;16.73;;
22268;SDS011;11303;50.772;19.670;2022-12-08T09:39:29;34.78;;;19.73;;
22268;SDS011;11303;50.772;19.670;2022-12-08T09:41:42;22.75;;;15.10;;
22268;SDS011;11303;50.772;19.670;2022-12-08T09:43:55;33.97;;;18.20;;
22268;SDS011;11303;50.772;19.670;2022-12-08T09:46:06;37.80;;;18.35;;
22268;SDS011;11303;50.772;19.670;2022-12-08T09:48:16;25.90;;;16.00;;
22268;SDS011;11303;50.772;19.670;2022-12-08T09:50:32;22.15;;;15.32;;
22268;SDS011;11303;50.772;19.670;2022-12-08T09:52:39;25.50;;;14.88;;
22268;SDS011;11303;50.772;19.670;2022-12-08T09:54:45;23.13;;;12.43;;
22268;SDS011;11303;50.772;19.670;2022-12-08T09:56:47;24.75;;;15.35;;
22268;SDS011;11303;50.772;19.670;2022-12-08T09:59:03;20.85;;;13.48;;
22268;SDS011;11303;50.772;19.670;2022-12-08T10:01:11;25.13;;;16.33;;
22268;SDS011;11303;50.772;19.670;2022-12-08T10:03:13;29.27;;;17.88;;
22268;SDS011;11303;50.772;19.670;2022-12-08T10:05:17;27.00;;;16.05;;
22268;SDS011;11303;50.772;19.670;2022-12-08T10:14:27;19.92;;;13.27;;
22268;SDS011;11303;50.772;19.670;2022-12-08T10:16:44;20.13;;;12.48;;
22268;SDS011;11303;50.772;19.670;2022-12-08T10:18:56;22.30;;;13.77;;
22268;SDS011;11303;50.772;19.670;2022-12-08T10:21:12;20.85;;;12.68;;
22268;SDS011;11303;50.772;19.670;2022-12-08T10:23:32;16.50;;;11.00;;
22268;SDS011;11303;50.772;19.670;2022-12-08T10:25:46;17.85;;;11.43;;
22268;SDS011;11303;50.772;19.670;2022-12-08T10:27:51;21.10;;;13.23;;
22268;SDS011;11303;50.772;19.670;2022-12-08T10:30:00;161.57;;;86.15;;
22268;SDS011;11303;50.772;19.670;2022-12-08T10:32:07;26.20;;;16.17;;
22268;SDS011;11303;50.772;19.670;2022-12-08T10:34:15;16.42;;;11.00;;
22268;SDS011;11303;50.772;19.670;2022-12-08T10:36:43;17.60;;;11.68;;
22268;SDS011;11303;50.772;19.670;2022-12-08T10:39:00;20.77;;;14.32;;
22268;SDS011;11303;50.772;19.670;2022-12-08T10:41:08;21.40;;;14.05;;
22268;SDS011;11303;50.772;19.670;2022-12-08T10:43:17;33.63;;;22.13;;
22268;SDS011;11303;50.772;19.670;2022-12-08T10:45:30;19.23;;;13.02;;
22268;SDS011;11303;50.772;19.670;2022-12-08T10:47:38;31.00;;;19.17;;
22268;SDS011;11303;50.772;19.670;2022-12-08T10:49:45;28.65;;;16.85;;
22268;SDS011;11303;50.772;19.670;2022-12-08T10:51:46;26.55;;;14.75;;
22268;SDS011;11303;50.772;19.670;2022-12-08T10:53:48;25.38;;;14.40;;
22268;SDS011;11303;50.772;19.670;2022-12-08T10:56:06;26.98;;;14.77;;
22268;SDS011;11303;50.772;19.670;2022-12-08T10:58:30;27.35;;;16.65;;
22268;SDS011;11303;50.772;19.670;2022-12-08T11:00:42;23.63;;;14.77;;
22268;SDS011;11303;50.772;19.670;2022-12-08T11:05:25;25.17;;;16.23;;
22268;SDS011;11303;50.772;19.670;2022-12-08T11:07:29;27.33;;;15.60;;
22268;SDS011;11303;50.772;19.670;2022-12-08T11:09:34;22.42;;;14.57;;
22268;SDS011;11303;50.772;19.670;2022-12-08T11:11:55;33.78;;;18.30;;
22268;SDS011;11303;50.772;19.670;2022-12-08T11:13:58;26.95;;;16.38;;
22268;SDS011;11303;50.772;19.670;2022-12-08T11:16:15;22.65;;;13.18;;
22268;SDS011;11303;50.772;19.670;2022-12-08T11:18:21;18.83;;;12.00;;
22268;SDS011;11303;50.772;19.670;2022-12-08T11:20:23;37.60;;;15.50;;
22268;SDS011;11303;50.772;19.670;2022-12-08T11:22:26;26.67;;;14.38;;
22268;SDS011;11303;50.772;19.670;2022-12-08T11:24:31;34.85;;;20.73;;
22268;SDS011;11303;50.772;19.670;2022-12-08T11:26:38;22.75;;;12.27;;
22268;SDS011;11303;50.772;19.670;2022-12-08T11:28:40;38.55;;;19.92;;
22268;SDS011;11303;50.772;19.670;2022-12-08T11:31:00;21.35;;;12.07;;
22268;SDS011;11303;50.772;19.670;2022-12-08T11:33:20;19.95;;;11.43;;
22268;SDS011;11303;50.772;19.670;2022-12-08T11:35:57;25.25;;;12.85;;
22268;SDS011;11303;50.772;19.670;2022-12-08T11:38:15;19.60;;;12.07;;
22268;SDS011;11303;50.772;19.670;2022-12-08T11:40:39;26.25;;;13.10;;
22268;SDS011;11303;50.772;19.670;2022-12-08T11:43:06;20.05;;;11.65;;
22268;SDS011;11303;50.772;19.670;2022-12-08T11:45:30;27.00;;;14.02;;
22268;SDS011;11303;50.772;19.670;2022-12-08T11:47:44;24.50;;;13.07;;
22268;SDS011;11303;50.772;19.670;2022-12-08T11:50:02;23.58;;;13.10;;
22268;SDS011;11303;50.772;19.670;2022-12-08T11:54:46;27.67;;;13.75;;
22268;SDS011;11303;50.772;19.670;2022-12-08T11:59:08;68.88;;;39.97;;
22268;SDS011;11303;50.772;19.670;2022-12-08T12:01:15;45.35;;;26.25;;
22268;SDS011;11303;50.772;19.670;2022-12-08T12:03:22;29.48;;;15.63;;
22268;SDS011;11303;50.772;19.670;2022-12-08T12:05:51;27.55;;;13.98;;
22268;SDS011;11303;50.772;19.670;2022-12-08T12:08:47;30.13;;;13.63;;
22268;SDS011;11303;50.772;19.670;2022-12-08T12:14:25;30.25;;;15.52;;
22268;SDS011;11303;50.772;19.670;2022-12-08T12:16:49;31.05;;;14.63;;
22268;SDS011;11303;50.772;19.670;2022-12-08T12:19:00;23.95;;;13.13;;
22268;SDS011;11303;50.772;19.670;2022-12-08T12:23:51;22.70;;;13.30;;
22268;SDS011;11303;50.772;19.670;2022-12-08T12:26:30;27.13;;;14.73;;
22268;SDS011;11303;50.772;19.670;2022-12-08T12:30:55;36.22;;;17.40;;
22268;SDS011;11303;50.772;19.670;2022-12-08T12:32:59;32.78;;;17.05;;
22268;SDS011;11303;50.772;19.670;2022-12-08T12:35:02;46.42;;;20.13;;
22268;SDS011;11303;50.772;19.670;2022-12-08T12:37:12;51.28;;;23.45;;
22268;SDS011;11303;50.772;19.670;2022-12-08T12:39:18;61.30;;;27.75;;
22268;SDS011;11303;50.772;19.670;2022-12-08T12:41:24;53.58;;;25.75;;
22268;SDS011;11303;50.772;19.670;2022-12-08T12:43:36;62.00;;;31.63;;
22268;SDS011;11303;50.772;19.670;2022-12-08T12:45:39;50.40;;;24.85;;